createdAt,value
2023-01-09T00:02:18.247Z,95059.16
2023-01-09T00:04:44.646Z,95059.13
2023-01-09T04:09:15.937Z,95673.84
2023-01-09T04:11:42.305Z,95672.94
2023-01-09T04:14:08.718Z,95667.63
2023-01-09T04:16:35.137Z,95669.56
2023-01-09T04:19:01.569Z,95670.38
2023-01-09T04:21:27.952Z,95683.72
2023-01-09T04:23:54.324Z,95690.22
2023-01-09T04:26:20.721Z,95705.97
2023-01-09T04:28:47.110Z,95702.72
2023-01-09T04:31:13.529Z,95709.56
2023-01-09T04:33:39.956Z,95704.44
2023-01-09T04:36:06.360Z,95712.09
2023-01-09T04:38:32.722Z,95711.69
2023-01-09T04:40:59.110Z,95706.28
2023-01-09T04:43:25.477Z,95710.09
2023-01-09T04:45:51.906Z,95715.66
2023-01-09T04:48:18.292Z,95709.09
2023-01-09T04:50:44.666Z,95718.19
2023-01-09T04:53:11.053Z,95714.84
2023-01-09T04:55:37.444Z,95708.84
2023-01-09T04:58:03.824Z,95717.06
2023-01-09T05:00:30.228Z,95704.44
2023-01-09T05:02:56.631Z,95713.34
2023-01-09T05:05:23.023Z,95713.00
2023-01-09T05:07:49.408Z,95720.88
2023-01-09T05:10:15.785Z,95717.13
2023-01-09T05:12:42.189Z,95720.50
2023-01-09T05:15:08.585Z,95720.84
2023-01-09T05:17:34.980Z,95719.94
2023-01-09T05:20:01.421Z,95719.00
2023-01-09T05:22:27.848Z,95711.81
2023-01-09T05:24:54.213Z,95723.91
2023-01-09T05:27:20.592Z,95713.34
2023-01-09T05:29:46.982Z,95715.34
2023-01-09T05:32:13.378Z,95709.56
2023-01-09T05:34:39.759Z,95711.81
2023-01-09T05:37:06.129Z,95722.97
2023-01-09T05:39:32.514Z,95724.25
2023-01-09T05:41:58.892Z,95722.91
2023-01-09T05:44:25.289Z,95721.00
2023-01-09T05:46:51.706Z,95719.41
2023-01-09T05:49:18.084Z,95712.69
2023-01-09T05:51:44.465Z,95713.50
2023-01-09T05:54:10.872Z,95732.41
2023-01-09T05:56:37.267Z,95724.50
2023-01-09T05:59:03.654Z,95721.13
2023-01-09T06:01:30.064Z,95731.69
2023-01-09T06:03:56.462Z,95730.16
2023-01-09T06:06:22.830Z,95730.97
2023-01-09T06:08:49.200Z,95740.31
2023-01-09T06:11:15.573Z,95741.88
2023-01-09T06:13:41.999Z,95738.81
2023-01-09T06:16:08.411Z,95736.91
2023-01-09T06:18:34.822Z,95747.06
2023-01-09T06:21:01.190Z,95745.84
2023-01-09T06:23:27.567Z,95753.59
2023-01-09T06:25:53.960Z,95757.38
2023-01-09T06:28:20.352Z,95749.16
2023-01-09T06:30:46.760Z,95743.44
2023-01-09T06:33:13.298Z,95746.78
2023-01-09T06:35:39.768Z,95744.56
2023-01-09T06:38:06.170Z,95734.25
2023-01-09T06:40:32.569Z,95736.41
2023-01-09T06:42:58.966Z,95726.09
2023-01-09T06:45:25.368Z,95722.25
2023-01-09T06:47:51.763Z,95717.81
2023-01-09T06:50:18.179Z,95712.06
2023-01-09T06:52:44.589Z,95709.31
2023-01-09T06:55:10.991Z,95703.41
2023-01-09T06:57:37.406Z,95705.19
2023-01-09T07:00:03.806Z,95699.53
2023-01-09T07:02:30.213Z,95707.13
2023-01-09T07:04:56.611Z,95708.66
2023-01-09T07:07:22.994Z,95708.25
2023-01-09T07:09:49.421Z,95706.97
2023-01-09T07:12:15.840Z,95705.97
2023-01-09T07:14:42.264Z,95710.53
2023-01-09T07:17:08.687Z,95710.06
2023-01-09T07:19:35.076Z,95716.56
2023-01-09T07:22:01.492Z,95715.84
2023-01-09T07:24:27.929Z,95722.06
2023-01-09T07:26:54.327Z,95733.75
2023-01-09T07:29:20.701Z,95732.22
2023-01-09T07:31:47.179Z,95743.94
2023-01-09T07:34:13.587Z,95746.69
2023-01-09T07:36:40.009Z,95737.09
2023-01-09T07:39:06.411Z,95736.34
2023-01-09T07:41:32.791Z,95743.13
2023-01-09T07:43:59.184Z,95742.50
2023-01-09T07:46:25.612Z,95734.13
2023-01-09T07:48:52.002Z,95728.00
2023-01-09T07:51:18.377Z,95730.28
2023-01-09T07:53:44.773Z,95726.47
2023-01-09T07:56:11.169Z,95732.63
2023-01-09T07:58:37.582Z,95733.88
2023-01-09T08:01:04.005Z,95741.88
2023-01-09T08:03:30.428Z,95732.78
2023-01-09T08:05:56.863Z,95740.75
2023-01-09T08:08:23.279Z,95743.81
2023-01-09T08:10:49.681Z,95727.13
2023-01-09T08:13:16.072Z,95728.63
2023-01-09T08:15:42.523Z,95729.00
2023-01-09T08:18:08.948Z,95731.66
2023-01-09T08:20:35.380Z,95737.03
2023-01-09T08:23:01.791Z,95733.94
2023-01-09T08:25:28.179Z,95737.06
2023-01-09T08:27:54.583Z,95733.56
2023-01-09T08:30:20.989Z,95735.78
2023-01-09T08:32:47.366Z,95735.13
2023-01-09T08:35:13.769Z,95732.44
2023-01-09T08:37:40.178Z,95721.84
2023-01-09T08:40:06.560Z,95724.16
2023-01-09T08:42:32.972Z,95712.91
2023-01-09T08:44:59.380Z,95702.59
2023-01-09T08:47:25.774Z,95696.84
2023-01-09T08:49:52.166Z,95700.25
2023-01-09T08:52:18.570Z,95687.66
2023-01-09T08:54:44.961Z,95686.97
2023-01-09T08:57:11.373Z,95691.63
2023-01-09T08:59:37.772Z,95682.03
2023-01-09T09:02:04.220Z,95682.03
2023-01-09T09:04:30.647Z,95675.19
2023-01-09T09:06:57.043Z,95684.00
2023-01-09T09:09:23.521Z,95687.84
2023-01-09T09:11:49.917Z,95682.44
2023-01-09T09:14:16.290Z,95684.06
2023-01-09T09:16:42.677Z,95690.94
2023-01-09T09:19:09.078Z,95682.13
2023-01-09T09:21:35.477Z,95697.78
2023-01-09T09:24:01.895Z,95694.63
2023-01-09T09:26:28.333Z,95691.63
2023-01-09T09:28:54.737Z,95708.25
2023-01-09T09:31:21.195Z,95714.31
2023-01-09T09:33:47.629Z,95723.06
2023-01-09T09:36:14.012Z,95727.63
2023-01-09T09:38:40.405Z,95723.78
2023-01-09T09:41:06.815Z,95727.97
2023-01-09T09:43:33.198Z,95726.84
2023-01-09T09:45:59.610Z,95732.31
2023-01-09T09:48:26.031Z,95733.72
2023-01-09T09:50:52.508Z,95723.97
2023-01-09T09:53:19.008Z,95736.13
2023-01-09T09:55:45.393Z,95736.84
2023-01-09T09:58:11.797Z,95744.28
2023-01-09T10:00:38.202Z,95751.53
2023-01-09T10:03:04.606Z,95749.66
2023-01-09T10:05:30.991Z,95752.81
2023-01-09T10:07:59.535Z,95749.59
2023-01-09T10:10:29.842Z,95751.44
2023-01-09T10:12:56.248Z,95749.53
2023-01-09T10:15:22.649Z,95746.19
2023-01-09T10:17:49.045Z,95733.94
2023-01-09T10:20:15.441Z,95745.75
2023-01-09T10:22:41.828Z,95750.16
2023-01-09T10:25:08.300Z,95749.47
2023-01-09T10:27:34.702Z,95754.47
2023-01-09T10:30:01.104Z,95761.72
2023-01-09T10:32:27.497Z,95750.41
2023-01-09T10:34:55.258Z,95756.84
2023-01-09T10:37:21.665Z,95737.91
2023-01-09T10:39:48.147Z,95735.59
2023-01-09T10:42:14.538Z,95739.75
2023-01-09T10:44:40.936Z,95742.81
2023-01-09T10:47:07.321Z,95742.78
2023-01-09T10:49:33.713Z,95736.34
2023-01-09T10:52:00.098Z,95734.09
2023-01-09T10:54:26.493Z,95728.72
2023-01-09T10:56:52.895Z,95730.28
2023-01-09T10:59:19.309Z,95729.47
2023-01-09T11:01:45.701Z,95720.63
2023-01-09T11:04:12.097Z,95745.75
2023-01-09T11:06:38.483Z,95746.84
2023-01-09T11:09:04.869Z,95753.16
2023-01-09T11:11:31.344Z,95761.13
2023-01-09T11:13:57.711Z,95761.94
2023-01-09T11:16:24.158Z,95766.91
2023-01-09T11:18:50.592Z,95760.47
2023-01-09T11:21:16.975Z,95760.41
2023-01-09T11:23:43.358Z,95763.47
2023-01-09T11:26:11.062Z,95753.97
2023-01-09T11:28:37.493Z,95762.69
2023-01-09T11:31:03.939Z,95744.50
2023-01-09T11:33:30.398Z,95743.25
2023-01-09T11:35:56.781Z,95714.88
2023-01-09T11:38:23.149Z,95717.31
2023-01-09T11:40:49.554Z,95711.69
2023-01-09T11:43:15.938Z,95707.19
2023-01-09T11:45:47.704Z,95712.13
2023-01-09T11:48:16.749Z,95717.34
2023-01-09T11:50:43.145Z,95706.38
2023-01-09T11:53:09.521Z,95712.75
2023-01-09T11:55:42.441Z,95706.59
2023-01-09T11:58:09.537Z,95700.59
2023-01-09T12:00:35.919Z,95699.88
2023-01-09T12:03:02.321Z,95695.75
2023-01-09T12:05:28.719Z,95690.50
2023-01-09T12:07:55.092Z,95688.53
2023-01-09T12:10:21.509Z,95687.34
2023-01-09T12:12:47.884Z,95684.78
2023-01-09T12:15:14.277Z,95685.63
2023-01-09T12:17:41.091Z,95687.94
2023-01-09T12:20:07.508Z,95684.13
2023-01-09T12:22:33.886Z,95684.84
2023-01-09T12:25:00.275Z,95680.69
2023-01-09T12:27:26.644Z,95679.59
2023-01-09T12:29:53.009Z,95675.94
2023-01-09T12:32:19.411Z,95691.81
2023-01-09T12:34:45.778Z,95697.78
2023-01-09T12:37:12.221Z,95693.75
2023-01-09T12:39:38.611Z,95702.03
2023-01-09T12:42:04.997Z,95710.09
2023-01-09T12:44:35.982Z,95710.34
2023-01-09T12:47:02.641Z,95710.72
2023-01-09T12:49:29.053Z,95714.97
2023-01-09T12:51:55.438Z,95716.84
2023-01-09T12:54:21.843Z,95723.50
2023-01-09T12:56:48.254Z,95722.06
2023-01-09T12:59:14.617Z,95730.06
2023-01-09T13:01:41.008Z,95728.91
2023-01-09T13:04:07.414Z,95737.28
2023-01-09T13:06:33.795Z,95739.22
2023-01-09T13:09:00.171Z,95732.22
2023-01-09T13:11:26.573Z,95734.09
2023-01-09T13:13:52.980Z,95750.56
2023-01-09T13:16:19.395Z,95752.38
2023-01-09T13:18:46.013Z,95744.06
2023-01-09T13:21:12.418Z,95739.41
2023-01-09T13:23:38.833Z,95747.44
2023-01-09T13:26:05.238Z,95756.47
2023-01-09T13:28:31.610Z,95748.03
2023-01-09T13:30:58.796Z,95743.56
2023-01-09T13:33:25.282Z,95747.81
2023-01-09T13:35:51.705Z,95761.47
2023-01-09T13:38:18.078Z,95755.47
2023-01-09T13:40:44.438Z,95767.97
2023-01-09T13:43:10.836Z,95753.50
2023-01-09T13:45:37.275Z,95768.31
2023-01-09T13:48:03.686Z,95768.75
2023-01-09T13:50:30.154Z,95763.44
2023-01-09T13:52:56.543Z,95763.78
2023-01-09T13:55:22.914Z,95753.47
2023-01-09T13:57:49.305Z,95757.59
2023-01-09T14:00:15.696Z,95758.47
2023-01-09T14:02:42.081Z,95763.75
2023-01-09T14:05:08.482Z,95757.97
2023-01-09T14:07:34.875Z,95757.22
2023-01-09T14:10:01.260Z,95778.56
2023-01-09T14:12:27.729Z,95766.75
2023-01-09T14:14:54.112Z,95772.34
2023-01-09T14:17:20.491Z,95784.53
2023-01-09T14:19:46.878Z,95762.16
2023-01-09T14:22:13.292Z,95773.19
2023-01-09T14:24:39.682Z,95775.78
2023-01-09T14:27:06.329Z,95787.19
2023-01-09T14:29:32.696Z,95792.84
2023-01-09T14:31:59.116Z,95802.41
2023-01-09T14:34:31.093Z,95811.44
2023-01-09T14:36:57.988Z,95817.56
2023-01-09T14:39:24.378Z,95825.06
2023-01-09T14:41:50.767Z,95824.66
2023-01-09T14:44:17.152Z,95819.34
2023-01-09T14:46:43.533Z,95820.50
2023-01-09T14:49:09.923Z,95829.59
2023-01-09T14:51:36.312Z,95841.06
2023-01-09T14:54:02.720Z,95858.59
2023-01-09T14:56:29.118Z,95855.31
2023-01-09T14:58:55.550Z,95844.97
2023-01-09T15:01:21.961Z,95858.31
2023-01-09T15:03:48.388Z,95862.44
2023-01-09T15:06:14.781Z,95864.25
2023-01-09T15:08:41.156Z,95868.31
2023-01-09T15:11:07.556Z,95867.97
2023-01-09T15:13:33.949Z,95874.47
2023-01-09T15:16:00.333Z,95896.47
2023-01-09T15:18:26.702Z,95915.84
2023-01-09T15:20:53.090Z,95907.88
2023-01-09T15:23:19.457Z,95909.25
2023-01-09T15:25:45.815Z,95921.34
2023-01-09T15:28:12.217Z,95918.44
2023-01-09T15:30:38.581Z,95922.41
2023-01-09T15:33:04.938Z,95942.91
2023-01-09T15:35:31.329Z,95939.41
2023-01-09T15:37:57.746Z,95937.66
2023-01-09T15:40:24.133Z,95934.09
2023-01-09T15:42:50.503Z,95934.53
2023-01-09T15:45:16.893Z,95940.59
2023-01-09T15:47:43.256Z,95949.75
2023-01-09T15:50:11.301Z,95956.19
2023-01-09T15:52:38.838Z,95963.81
2023-01-09T15:55:05.231Z,95966.41
2023-01-09T15:57:31.604Z,95975.16
2023-01-09T15:59:57.985Z,95991.81
2023-01-09T16:02:24.402Z,95985.00
2023-01-09T16:04:50.841Z,95988.44
2023-01-09T16:07:17.249Z,95987.66
2023-01-09T16:09:43.832Z,95991.34
2023-01-09T16:12:10.245Z,96002.72
2023-01-09T16:14:36.632Z,96003.44
2023-01-09T16:17:03.029Z,96009.19
2023-01-09T16:19:29.395Z,96020.06
2023-01-09T16:21:55.768Z,96020.50
2023-01-09T16:24:22.152Z,96020.84
2023-01-09T16:26:48.505Z,96023.59
2023-01-09T16:29:15.022Z,96020.06
2023-01-09T16:31:41.471Z,96034.63
2023-01-09T16:34:07.858Z,96026.25
2023-01-09T16:36:34.287Z,96034.69
2023-01-09T16:39:00.684Z,96045.25
2023-01-09T16:41:27.052Z,96050.91
2023-01-09T16:43:53.434Z,96051.31
2023-01-09T16:46:19.830Z,96066.94
2023-01-09T16:48:46.257Z,96061.28
2023-01-09T16:51:12.618Z,96064.25
2023-01-09T16:53:38.984Z,96072.25
2023-01-09T16:56:05.354Z,96086.22
2023-01-09T16:58:31.710Z,96082.94
2023-01-09T17:00:58.150Z,96083.41
2023-01-09T17:03:24.596Z,96090.13
2023-01-09T17:05:50.960Z,96098.25
2023-01-09T17:08:17.345Z,96094.09
2023-01-09T17:10:43.731Z,96086.75
2023-01-09T17:13:10.102Z,96088.94
2023-01-09T17:15:36.478Z,96102.50
2023-01-09T17:18:02.916Z,96091.88
2023-01-09T17:20:29.293Z,96102.84
2023-01-09T17:22:55.650Z,96104.38
2023-01-09T17:25:22.032Z,96115.91
2023-01-09T17:27:48.413Z,96117.16
2023-01-09T17:30:18.988Z,96117.84
2023-01-09T17:32:45.563Z,96115.44
2023-01-09T17:35:11.969Z,96124.09
2023-01-09T17:37:38.347Z,96127.09
2023-01-09T17:40:04.789Z,96141.84
2023-01-09T17:42:31.198Z,96152.47
2023-01-09T17:44:57.562Z,96156.75
2023-01-09T17:47:23.973Z,96167.44
2023-01-09T17:49:50.372Z,96176.94
2023-01-09T17:52:16.755Z,96180.03
2023-01-09T17:54:43.178Z,96172.56
2023-01-09T17:57:09.562Z,96165.38
2023-01-09T17:59:35.927Z,96174.00
2023-01-09T18:02:02.358Z,96178.56
2023-01-09T18:04:28.750Z,96187.31
2023-01-09T18:06:55.136Z,96189.88
2023-01-09T18:09:21.538Z,96205.31
2023-01-09T18:11:47.925Z,96203.19
2023-01-09T18:14:14.290Z,96199.00
2023-01-09T18:16:40.738Z,96203.44
2023-01-09T18:19:07.159Z,96206.50
2023-01-09T18:21:33.547Z,96218.78
2023-01-09T18:23:59.929Z,96216.13
2023-01-09T18:26:26.337Z,96214.84
2023-01-09T18:28:52.729Z,96209.94
2023-01-09T18:31:19.132Z,96211.72
2023-01-09T18:33:45.518Z,96210.88
2023-01-09T18:36:11.909Z,96213.81
2023-01-09T18:38:38.310Z,96212.34
2023-01-09T18:41:04.697Z,96232.06
2023-01-09T18:43:31.117Z,96227.88
2023-01-09T18:45:57.543Z,96225.53
2023-01-09T18:48:23.957Z,96226.75
2023-01-09T18:50:50.349Z,96230.84
2023-01-09T18:53:16.749Z,96230.84
2023-01-09T18:55:43.144Z,96250.16
2023-01-09T18:58:09.532Z,96259.31
2023-01-09T19:00:35.936Z,96261.13
2023-01-09T19:03:02.332Z,96267.97
2023-01-09T19:05:28.688Z,96268.75
2023-01-09T19:07:55.073Z,96268.66
2023-01-09T19:10:21.504Z,96270.19
2023-01-09T19:12:47.889Z,96279.00
2023-01-09T19:15:14.268Z,96280.50
2023-01-09T19:17:40.635Z,96286.66
2023-01-09T19:20:07.029Z,96295.66
2023-01-09T19:22:33.403Z,96294.63
2023-01-09T19:24:59.788Z,96297.19
2023-01-09T19:27:26.196Z,96300.19
2023-01-09T19:29:52.577Z,96294.88
2023-01-09T19:32:18.959Z,96303.03
2023-01-09T19:34:45.353Z,96298.81
2023-01-09T19:37:11.762Z,96301.03
2023-01-09T19:39:38.187Z,96301.41
2023-01-09T19:42:04.564Z,96311.66
2023-01-09T19:44:30.954Z,96301.31
2023-01-09T19:46:57.322Z,96312.25
2023-01-09T19:49:23.682Z,96305.31
2023-01-09T19:51:50.075Z,96307.38
2023-01-09T19:54:16.445Z,96301.75
2023-01-09T19:56:42.857Z,96317.81
2023-01-09T19:59:09.236Z,96308.94
2023-01-09T20:01:35.709Z,96312.25
2023-01-09T20:04:02.121Z,96311.84
2023-01-09T20:06:28.514Z,96317.81
2023-01-09T20:08:54.910Z,96310.88
2023-01-09T20:11:21.298Z,96308.94
2023-01-09T20:13:47.693Z,96309.78
2023-01-09T20:16:14.117Z,96310.97
2023-01-09T20:18:40.498Z,96322.13
2023-01-09T20:21:06.898Z,96326.25
2023-01-09T20:23:33.277Z,96331.88
2023-01-09T20:26:00.016Z,96344.38
2023-01-09T20:28:26.451Z,96352.47
2023-01-09T20:30:52.856Z,96364.66
2023-01-09T20:33:19.251Z,96360.50
2023-01-09T20:35:45.616Z,96367.19
2023-01-09T20:38:11.990Z,96374.91
2023-01-09T20:40:38.371Z,96375.59
2023-01-09T20:43:04.763Z,96357.53
2023-01-09T20:45:31.208Z,96354.34
2023-01-09T20:47:57.631Z,96338.16
2023-01-09T20:50:24.045Z,96358.88
2023-01-09T20:52:50.453Z,96365.81
2023-01-09T20:55:16.832Z,96360.44
2023-01-09T20:57:43.216Z,96360.19
2023-01-09T21:00:09.592Z,96375.16
2023-01-09T21:02:35.970Z,96377.16
2023-01-09T21:05:02.350Z,96366.94
2023-01-09T21:07:28.718Z,96358.88
2023-01-09T21:09:55.083Z,96341.84
2023-01-09T21:12:21.457Z,96350.91
2023-01-09T21:14:47.828Z,96346.38
2023-01-09T21:17:14.196Z,96350.59
2023-01-09T21:19:40.590Z,96337.19
2023-01-09T21:22:06.950Z,96344.75
2023-01-09T21:24:33.313Z,96336.34
2023-01-09T21:26:59.705Z,96345.09
2023-01-09T21:29:26.074Z,96342.44
2023-01-09T21:31:52.470Z,96350.91
2023-01-09T21:34:18.898Z,96358.88
2023-01-09T21:36:45.334Z,96362.91
2023-01-09T21:39:11.719Z,96376.97
2023-01-09T21:41:38.104Z,96373.81
2023-01-09T21:44:04.484Z,96373.28
2023-01-09T21:46:30.949Z,96382.69
2023-01-09T21:48:57.324Z,96391.44
2023-01-09T21:51:23.713Z,96394.97
2023-01-09T21:53:50.083Z,96402.16
2023-01-09T21:56:16.442Z,96397.88
2023-01-09T21:58:42.814Z,96396.41
2023-01-09T22:01:09.226Z,96403.28
2023-01-09T22:03:35.631Z,96396.53
2023-01-09T22:06:01.997Z,96399.59
2023-01-09T22:08:28.396Z,96413.13
2023-01-09T22:10:54.768Z,96413.97
2023-01-09T22:13:21.131Z,96412.28
2023-01-09T22:15:47.528Z,96420.94
2023-01-09T22:18:13.899Z,96437.63
2023-01-09T22:20:40.273Z,96459.91
2023-01-09T22:23:06.648Z,96493.06
2023-01-09T22:25:33.034Z,96498.22
2023-01-09T22:27:59.414Z,96497.03
2023-01-09T22:30:25.810Z,96516.78
2023-01-09T22:32:52.182Z,96524.16
2023-01-09T22:35:18.625Z,96528.69
2023-01-09T22:37:45.000Z,96531.16
2023-01-09T22:40:11.382Z,96549.63
2023-01-09T22:42:37.777Z,96550.44
2023-01-09T22:45:04.149Z,96568.44
2023-01-09T22:47:30.530Z,96576.53
2023-01-09T22:49:56.898Z,96580.91
2023-01-09T22:52:23.285Z,96572.25
2023-01-09T22:54:49.658Z,96565.50
2023-01-09T22:57:16.031Z,96565.28
2023-01-09T22:59:42.404Z,96570.97
2023-01-09T23:02:08.894Z,96586.06
2023-01-09T23:04:35.354Z,96583.41
2023-01-09T23:07:01.732Z,96593.81
2023-01-09T23:09:28.086Z,96588.28
2023-01-09T23:11:54.461Z,96587.72
2023-01-09T23:14:20.840Z,96593.16
2023-01-09T23:16:47.249Z,96596.16
2023-01-09T23:19:13.787Z,96596.72
2023-01-09T23:21:40.166Z,96596.72
2023-01-09T23:24:06.548Z,96595.38
2023-01-09T23:26:32.957Z,96596.84
2023-01-09T23:28:59.341Z,96599.13
2023-01-09T23:31:25.735Z,96600.47
2023-01-09T23:33:52.110Z,96592.38
2023-01-09T23:36:18.489Z,96607.78
2023-01-09T23:38:44.854Z,96608.66
2023-01-09T23:41:11.236Z,96616.09
2023-01-09T23:43:37.633Z,96619.31
2023-01-09T23:46:04.107Z,96627.28
2023-01-09T23:48:30.578Z,96617.56
2023-01-09T23:50:57.024Z,96626.41
2023-01-09T23:53:23.403Z,96624.22
2023-01-09T23:55:49.794Z,96617.88
2023-01-09T23:58:16.175Z,96613.91
